Aviation Digital Data Service (ADDS)

Output produced by METARs form (1241 UTC 15 November 2018)
found at http://www.aviationweather.gov/metar/data/
 
TAF KBAB 1511/1617 VRB06KT 1600 FU BKN015 QNH3018INS 
     BECMG 1511/1512 VRB06KT 3200 FU BKN015 QNH3014INS 
     BECMG 1520/1521 VRB06KT 1600 FU BKN015 QNH3006INS 
     BECMG 1611/1612 VRB06KT 3200 FU BKN015 QNH3005INS TX16/1522Z TN00/1514Z
       
TAF KBAD 151000Z 1510/1616 26006KT 9999 SKC QNH3017INS TX13/1521Z TNM03/1512Z
       
KBAF 151139Z 1512/1612 02004KT P6SM BKN250 
     FM152000 09005KT P6SM VCSH OVC080 
     FM152200 08005KT P6SM -SN OVC060 
     FM160000 07005KT 5SM -SNPL BR OVC040 
     FM160300 05008KT 2SM -SNPL BR OVC012 
     FM160500 05010KT 2SM -FZRAPL BR OVC008 
     FM160700 05010G22KT 1 1/2SM -FZRAPL BR OVC008 
     FM161000 04011G22KT 2SM -FZRA BR OVC008
       
KBAM 151124Z 1512/1612 VRB04KT P6SM SCT250
       
KBBD 151120Z 1512/1612 VRB05KT P6SM SKC
       
KBBG 151120Z 1512/1612 VRB03KT P6SM SKC 
     FM152100 25005KT P6SM SKC
       
KBCB 151232Z 1513/1612 07009KT 5SM -FZRAPL BR OVC009 
     FM151600 07008G17KT 5SM -RA BR OVC020 
     FM152000 05006KT 5SM BR OVC010 
     FM160600 28012G22KT P6SM BKN040 
     FM160900 28011G23KT P6SM BKN020
       
KBCE 151120Z 1512/1612 29007KT P6SM SCT200 
     FM151900 09008KT P6SM SCT180 
     FM160100 28006KT P6SM SCT180
       
KBDL 151139Z 1512/1618 02004KT P6SM OVC250 
     FM152100 09006KT P6SM -SN OVC060 
     FM160000 06006KT 4SM -SNPL BR OVC025 
     FM160200 05008KT 5SM -FZRAPLSN BR OVC015 
     FM160500 05010G20KT 1 1/2SM -RAPL BR OVC008 
     FM160800 04012G22KT 2SM -RA BR OVC008 
     FM161400 35013G20KT 4SM -RA BR OVC010 
     FM161600 34012G19KT P6SM BKN015
       
KBDR 151124Z 1512/1612 05008KT P6SM OVC200 
     FM151400 06009KT P6SM OVC200 
     FM151600 08010KT P6SM OVC100 
     FM151900 08013G18KT 2SM -SNPL BKN015 OVC025 
     FM152000 08010KT 1SM -SNPL OVC010 
     TEMPO 1520/1522 -SN 
     FM160000 07020G28KT 2SM -RAPL OVC009 
     FM160300 06025G34KT 3SM -RA BR OVC008 
     FM160900 03022G31KT 4SM -RA BR OVC010
       
KBED 151139Z 1512/1612 00000KT P6SM BKN250 
     FM152200 09004KT P6SM VCSH OVC070 
     FM160000 VRB03KT P6SM -SN SCT025 OVC050 
     FM160200 08004KT 5SM -SNPL BR OVC025 
     FM160500 08008KT 2SM -SNPLRA BR OVC008 
     FM160700 07010G20KT 2SM -RAPL BR OVC008 
     FM160900 07014G26KT 2SM -RA BR OVC008 
     FM161100 06012G24KT 1 1/2SM -RA BR OVC008
       
KBFD 151120Z 1512/1612 13006KT P6SM OVC150 
     FM151700 14011G17KT 1SM -SN OVC007 
     FM152100 14010KT 1 1/2SM -SNPL OVC003 
     FM160300 12004KT 1SM -SN BR OVC003 
     FM160900 27004KT 2SM -SN BR OVC003
       
KBFF 151120Z 1512/1612 32008KT P6SM SCT250 
     FM151700 32015G23KT P6SM SCT250 
     FM160000 35005KT P6SM FEW250
       
KBFI 151135Z 1512/1612 15005KT P6SM OVC015 
     FM151900 14004KT P6SM SCT020 BKN050 
     FM160500 15005KT P6SM VCSH OVC020
       
KBFL 151140Z 1512/1612 VRB03KT 6SM HZ FEW200
       
KBFM 151128Z 1512/1612 34010KT P6SM OVC016 
     FM151500 33014KT P6SM SKC 
     FM160300 31005KT P6SM SKC
       
KBGM 151131Z 1512/1612 14007KT P6SM BKN150 
     FM152100 13007KT 2SM -SN OVC020 
     FM152200 12008KT 1/2SM SN OVC009 
     FM160300 07009KT 1 1/2SM -SNPL OVC007 
     FM160700 03008KT 1/2SM SN OVC005 
     FM161000 36005KT 2SM -SN OVC012
       
KBGR 151120Z 1512/1612 31004KT P6SM FEW250 
     FM151900 20003KT P6SM SCT150 
     FM160600 10005KT P6SM OVC090 
     FM160800 09005KT 2SM -SN OVC015
       
KBHB 151120Z 1512/1612 32008KT P6SM FEW250 
     FM152000 VRB03KT P6SM SCT150 
     FM160700 09005KT P6SM OVC090 
     FM160800 09012KT 2SM -SN OVC015
       
KBHM 151138Z 1512/1612 30010KT P6SM OVC010 
     TEMPO 1512/1514 -SN OVC007 
     FM151700 30010KT P6SM BKN020 
     FM152100 30008KT P6SM SCT025 BKN050 
     FM160000 32002KT P6SM SKC
       
TAF KBIF 150602Z 1506/1612 VRB06KT 9999 SCT200 QNH3016INS TX14/1521Z TNM02/1512Z
       
KBIH 151120Z 1512/1612 33006KT P6SM FEW250 
     FM151600 VRB04KT P6SM SCT250 
     FM152100 17006KT P6SM SCT250 
     FM160400 33006KT P6SM SCT250
       
KBIL 151137Z 1512/1612 31012KT P6SM SCT200 
     FM151500 25015KT P6SM BKN200 
     FM160300 24015G20KT P6SM BKN100 
     FM160700 25016KT P6SM BKN080
       
KBIS 151133Z 1512/1612 27009KT P6SM FEW250 
     FM151600 31013G21KT P6SM BKN025 
     FM160200 32005KT P6SM BKN015
       
TAF AMD KBIX 151040Z 1510/1616 34012KT 9999 SCT015 SCT200 QNH3018INS 
     TEMPO 1511/1513 BKN010 
     BECMG 1514/1515 34010G15KT 9999 SKC QNH3015INS 
     BECMG 1521/1522 36006KT 9999 SKC QNH3020INS TX10/1520Z TN01/1511Z
       
KBJC 151116Z 1511/1606 25005KT P6SM FEW250 
     FM151800 05008KT P6SM FEW150 SCT250 
     FM152100 10005KT P6SM FEW150 SCT250 
     FM152300 17005KT P6SM FEW150 SCT250 
     FM160500 25005KT P6SM SCT250
       
KBJI 151130Z 1512/1612 21005KT P6SM BKN110 
     FM151600 25006KT P6SM VCSH OVC035 
     FM151900 29007KT P6SM -SN OVC015 
     FM160300 30009KT P6SM BKN008
       
KBKE 151120Z 1512/1612 VRB03KT P6SM SCT040 SCT150 
     FM152000 10006KT P6SM BKN100
       
TAF KBKF 150900Z 1509/1615 19009KT 9999 SKC QNH3011INS 
     BECMG 1517/1518 03009KT 9999 SKC QNH3013INS 
     BECMG 1606/1607 20009KT 9999 SKC QNH3008INS 
     TEMPO 1610/1614 20010G15KT TX11/1522Z TN01/1512Z
       
KBKW 151120Z 1512/1612 13013G25KT 6SM FZRA BR OVC040 
     TEMPO 1512/1516 3SM -RA BR OVC025 
     FM151600 10012G22KT 3SM -RA BR OVC010 
     TEMPO 1516/1520 1SM -RA BR OVC005 
     FM152200 14008KT P6SM -PLRA OVC010 
     FM160000 23005KT P6SM -PLSN OVC005 
     FM160100 26009G16KT 6SM -SN OVC008 
     FM160600 27013G23KT P6SM OVC015
       
KBLF 151230Z 1512/1612 08010G18KT 5SM -FZRAPL BR OVC009 WS020/11040KT 
     FM151300 11009G17KT 5SM -RA BR OVC020 
     FM151900 09005KT 5SM BR OVC020 
     FM160000 VRB03KT 4SM -SNRA BR OVC010 
     FM160200 27011G21KT P6SM OVC010
       
KBLH 151121Z 1512/1612 34005KT P6SM SKC 
     FM151700 VRB04KT P6SM SCT250
       
KBLI 151135Z 1512/1612 17005KT P6SM SCT025 OVC050 
     FM152000 17010KT P6SM VCSH SCT025 BKN050 
     FM160000 16010KT P6SM -RA OVC030
       
TAF AMD KBLV 151228Z 1512/1614 VRB06KT 4800 -SN OVC015 650708 510552 530757
QNH3009INS 
     TEMPO 1512/1515 2400 -SN BR 
     BECMG 1514/1515 33012KT 9000 -SN BKN010 620708 510806 QNH3006INS 
     BECMG 1521/1522 VRB06KT 9999 NSW SCT007 QNH3005INS TX00/1520Z TNM05/1608Z
       
KBMG 151125Z 1512/1612 VRB03KT 1 1/2SM -SN OVC003 
     FM151400 VRB03KT P6SM VCSH OVC003 
     FM160200 26006KT P6SM OVC003 
     FM160400 24006KT P6SM BKN008 
     FM160800 22007KT P6SM SCT008 AMD LTD TO CLD VIS AND WIND TIL 151400
       
KBMI 151144Z 1512/1612 01005KT 3SM -SN BR OVC008 
     TEMPO 1512/1516 1SM -SN BR VV006 
     FM151900 33005KT P6SM VCSH OVC010 
     FM152200 29005KT P6SM VCSH BKN020 
     FM160000 23005KT P6SM SCT200
       
KBNA 151120Z 1512/1612 23005KT P6SM FEW007 SCT012 OVC018 
     TEMPO 1512/1516 4SM -SN BKN007 OVC012 
     FM152300 27009KT P6SM OVC035 
     FM160300 23005KT P6SM SCT100
       
KBNO 151120Z 1512/1612 VRB04KT P6SM BKN150
       
KBOI 151120Z 1512/1612 VRB05KT P6SM SCT150
       
KBOS 151139Z 1512/1618 33008KT P6SM BKN250 
     FM151700 07004KT P6SM BKN200 
     FM152200 10006KT P6SM VCSH OVC060 
     FM152300 10007KT P6SM -SN SCT025 OVC040 
     FM160100 10009KT P6SM -SNPLRA OVC025 
     FM160500 09017G25KT 3SM -RAPL BR OVC008 
     FM160700 08020G34KT 2SM -RA BR OVC008 
     FM161700 34015G31KT P6SM -RA BKN010
       
KBPI 151124Z 1512/1612 01006KT P6SM FEW200 
     FM151900 35009KT P6SM SCT200 
     FM160100 01006KT P6SM FEW100 SCT150
       
KBPK 151126Z 1512/1612 VRB04KT P6SM FEW015 SCT050 
     FM151600 21004KT P6SM SKC
       
KBPT 151120Z 1512/1612 VRB05KT P6SM SKC 
     FM151600 30006KT P6SM SKC 
     FM160000 VRB03KT P6SM SKC
       
KBRD 151135Z 1512/1612 19010KT P6SM SCT100 
     FM151400 19008KT P6SM BKN100 
     FM152000 29007KT P6SM VCSH BKN025 OVC060 
     FM152300 31008G15KT 6SM -SN OVC015 
     TEMPO 1523/1602 3SM -SN 
     FM160300 31012G19KT P6SM -SN OVC015
       
KBRL 151120Z 1512/1612 VRB04KT P6SM SKC 
     FM151900 20009KT P6SM SKC 
     FM160200 23010KT P6SM SKC 
     FM160600 26010KT P6SM BKN100
       
KBRO 151120Z 1512/1612 VRB04KT P6SM SKC 
     FM152100 05008KT P6SM SKC
       
KBTL 151133Z 1512/1612 06007KT P6SM BKN120 
     FM151400 11006KT 5SM -SN OVC025 
     FM151800 14005KT 1 1/2SM -SN BR OVC007 
     FM152200 16003KT 4SM BR OVC004 
     FM160300 22007KT P6SM OVC025 
     FM160600 22008KT P6SM OVC100 
     FM160900 21010KT 4SM -SHSN OVC025
       
KBTM 151129Z 1512/1612 VRB04KT P6SM OVC060
       
KBTR 151130Z 1512/1612 35003KT P6SM SKC 
     FM151700 31006KT P6SM SKC 
     FM160000 00000KT P6SM SKC
       
KBTV 151152Z 1512/1612 00000KT P6SM SCT026 
     TEMPO 1512/1515 BKN027 
     FM151500 00000KT P6SM BKN150 
     FM160300 14006KT P6SM VCSH OVC050 
     FM160600 14005KT 1SM -SN BR OVC020
       
KBUF 151129Z 1512/1612 09009KT P6SM BKN200 
     FM151800 12008KT P6SM OVC050 
     FM152000 13009KT 3SM -SN OVC035 
     FM152200 13009KT 1SM -SN OVC020 
     FM160900 16004KT 1 1/2SM -SN OVC015 
     FM161100 19004KT 2SM -SN OVC012
       
KBUR 151123Z 1512/1612 VRB03KT P6SM SKC 
     FM152200 17008KT P6SM SCT250 
     FM160400 VRB03KT P6SM SCT250
       
KBVI 151136Z 1512/1612 10008KT P6SM -FZRASN OVC060 
     FM151500 11010KT 3SM -SNPL BKN035 
     FM151700 12010KT 2SM -FZRASN BR OVC015 
     FM152200 12008KT 1SM -RASN BR OVC008 
     FM160000 15007KT 3/4SM -SN BR OVC005 
     FM160900 25010KT 4SM -SHSN OVC015 AMD NOT SKED 1600/1612
       
KBVO 151120Z 1512/1612 00000KT P6SM SKC 
     FM151500 20009KT P6SM SKC 
     FM160000 00000KT P6SM SKC
       
KBWG 151131Z 1512/1612 23008KT P6SM OVC008 
     TEMPO 1512/1516 6SM -DZ OVC005 
     FM151900 25010G18KT P6SM -RASN OVC012 
     FM160100 23007KT P6SM OVC012 
     FM160600 20006KT P6SM SKC
       
KBWI 151220Z 1512/1618 04008KT 2SM -SNPL OVC025 
     FM151500 06011G21KT 2SM -FZRAPLSN BKN008 OVC025 
     FM151800 06013G23KT 1 1/2SM -RA BKN008 OVC025 
     FM160400 03009KT 2SM -RA BKN003 OVC025 
     FM160900 30015G26KT P6SM SCT025 BKN035
       
KBYI 151120Z 1512/1612 VRB04KT P6SM FEW040 SCT200 
     FM160300 18006KT P6SM FEW025 SCT120
       
KBZN 151125Z 1512/1618 VRB06KT P6SM SCT070 BKN200 
     FM160200 VRB06KT P6SM BKN100 
     FM161600 29008KT 4SM -SNRA OVC030